Time;durP1;ratioP1;P1;durP2;ratioP2;P2;SDS_P1;SDS_P2;PMS_P1;PMS_P2;Temp;Humidity;BMP_temperature;BMP_pressure;BME280_temperature;BME280_humidity;BME280_pressure;Samples;Min_cycle;Max_cycle;Signal;HPM_P1;HPM_P2
2023/09/15 03:00:32;;;;;;;10.35;5.30;;;20.40;91.40;;;;;;5054786;28;20098;-85
2023/09/15 03:02:57;;;;;;;9.98;5.88;;;20.40;91.40;;;;;;5037594;28;20478;-83
2023/09/15 03:05:23;;;;;;;8.95;5.35;;;20.40;91.40;;;;;;5041883;28;20017;-84
2023/09/15 03:07:49;;;;;;;9.80;5.18;;;20.40;91.40;;;;;;5025559;28;20028;-84
2023/09/15 03:10:14;;;;;;;11.45;5.93;;;20.40;91.40;;;;;;5045825;28;20021;-84
2023/09/15 03:12:40;;;;;;;7.72;5.30;;;20.40;91.40;;;;;;5026449;28;20026;-82
2023/09/15 03:15:08;;;;;;;11.98;5.38;;;20.40;91.40;;;;;;5031467;28;20429;-84
2023/09/15 03:17:34;;;;;;;10.13;5.15;;;20.30;91.40;;;;;;5042105;28;20021;-84
2023/09/15 03:20:06;;;;;;;9.00;4.85;;;20.40;91.40;;;;;;5048921;28;20053;-83
2023/09/15 03:22:34;;;;;;;8.88;5.65;;;20.40;91.40;;;;;;5027997;28;20045;-84
2023/09/15 03:24:59;;;;;;;8.40;5.50;;;20.40;91.50;;;;;;5022265;28;20057;-84
2023/09/15 03:27:25;;;;;;;6.70;5.00;;;20.40;91.40;;;;;;5029552;28;20017;-84
2023/09/15 03:29:50;;;;;;;7.75;4.68;;;20.30;91.40;;;;;;5045779;28;20024;-85
2023/09/15 03:32:16;;;;;;;11.32;4.70;;;20.30;91.40;;;;;;5031820;28;20017;-84
2023/09/15 03:34:42;;;;;;;10.95;5.80;;;20.40;91.50;;;;;;5049834;28;20466;-85
2023/09/15 03:37:07;;;;;;;8.40;4.95;;;20.40;91.50;;;;;;5030663;28;20104;-83
2023/09/15 03:39:33;;;;;;;10.90;5.65;;;20.40;91.50;;;;;;5025329;28;20048;-84
2023/09/15 03:41:59;;;;;;;11.73;5.10;;;20.30;91.40;;;;;;5050579;28;20546;-84
2023/09/15 03:44:25;;;;;;;11.43;5.70;;;20.40;91.50;;;;;;5033080;28;20017;-83
2023/09/15 03:46:50;;;;;;;8.55;5.35;;;20.30;91.40;;;;;;5045292;28;20066;-84
2023/09/15 03:49:16;;;;;;;11.32;5.63;;;20.40;91.50;;;;;;5050342;28;20108;-83
2023/09/15 03:51:42;;;;;;;8.93;5.65;;;20.40;91.50;;;;;;5046379;28;20424;-84
2023/09/15 03:54:08;;;;;;;7.93;5.15;;;20.30;91.50;;;;;;5045783;28;20036;-84
2023/09/15 03:56:34;;;;;;;10.50;5.82;;;20.30;91.50;;;;;;5029984;28;20026;-84
2023/09/15 03:59:00;;;;;;;9.30;6.15;;;20.40;91.50;;;;;;5046470;28;20044;-84
2023/09/15 04:01:26;;;;;;;8.57;5.05;;;20.30;91.50;;;;;;5034766;28;20133;-84
2023/09/15 04:03:51;;;;;;;9.07;5.55;;;20.30;91.50;;;;;;5051384;28;20021;-84
2023/09/15 04:06:17;;;;;;;8.98;5.70;;;20.40;91.90;;;;;;5046213;28;20021;-84
2023/09/15 04:08:45;;;;;;;8.73;5.80;;;20.40;91.50;;;;;;5063146;28;20029;-84
2023/09/15 04:11:11;;;;;;;7.20;4.88;;;20.40;91.50;;;;;;5070140;28;20029;-84
2023/09/15 04:13:36;;;;;;;7.82;5.55;;;20.30;91.50;;;;;;5046537;28;20021;-84
2023/09/15 04:16:03;;;;;;;11.32;5.82;;;20.40;91.50;;;;;;5062033;28;20058;-83
2023/09/15 04:18:31;;;;;;;13.45;6.07;;;20.40;91.50;;;;;;5047183;28;20021;-84
2023/09/15 04:20:57;;;;;;;10.68;5.95;;;20.40;91.50;;;;;;5043611;28;20047;-84
2023/09/15 04:23:23;;;;;;;9.30;5.80;;;20.30;91.50;;;;;;5063158;28;20017;-84
2023/09/15 04:25:49;;;;;;;9.68;6.00;;;20.30;91.50;;;;;;5068530;28;20107;-84
2023/09/15 04:28:14;;;;;;;10.07;5.85;;;20.30;91.50;;;;;;5062471;28;20021;-84
2023/09/15 04:30:40;;;;;;;11.00;5.78;;;20.30;91.50;;;;;;5047143;28;20055;-84
2023/09/15 04:33:06;;;;;;;7.45;5.35;;;20.30;91.50;;;;;;5053096;28;20021;-84
2023/09/15 04:35:31;;;;;;;10.20;5.88;;;20.30;91.50;;;;;;5050818;28;20111;-84
2023/09/15 04:37:58;;;;;;;11.68;5.45;;;20.30;91.50;;;;;;5066816;28;20468;-84
2023/09/15 04:40:24;;;;;;;10.73;5.93;;;20.30;91.50;;;;;;5064410;28;20017;-84
2023/09/15 04:42:50;;;;;;;11.10;5.47;;;20.30;91.50;;;;;;5062846;28;20055;-84
2023/09/15 04:45:15;;;;;;;8.15;5.35;;;20.40;91.50;;;;;;5067214;28;20037;-84
2023/09/15 04:47:41;;;;;;;14.68;6.03;;;20.30;91.50;;;;;;5066761;28;20036;-84
2023/09/15 04:50:09;;;;;;;10.10;5.75;;;20.30;91.50;;;;;;5045875;28;20401;-83
2023/09/15 04:52:35;;;;;;;9.40;5.82;;;20.30;91.50;;;;;;5045731;28;20504;-83
2023/09/15 04:55:00;;;;;;;9.10;5.55;;;20.30;91.50;;;;;;5066389;28;20029;-83
2023/09/15 04:57:26;;;;;;;10.88;6.07;;;20.30;91.50;;;;;;5051614;28;20078;-83
2023/09/15 04:59:53;;;;;;;11.45;6.28;;;20.30;91.50;;;;;;5049070;28;20021;-84
2023/09/15 05:02:23;;;;;;;14.43;5.28;;;20.30;91.50;;;;;;5050162;28;20482;-83
2023/09/15 05:04:51;;;;;;;12.30;6.05;;;20.30;91.50;;;;;;5039175;28;20116;-84
2023/09/15 05:07:16;;;;;;;10.07;5.53;;;20.30;91.50;;;;;;5026749;28;20436;-84
2023/09/15 05:09:42;;;;;;;8.60;5.32;;;20.30;91.50;;;;;;5031236;28;20025;-83
2023/09/15 05:12:08;;;;;;;14.73;5.93;;;20.30;91.50;;;;;;5028328;28;20401;-84
2023/09/15 05:14:34;;;;;;;12.32;5.05;;;20.30;91.50;;;;;;5022881;28;20025;-84
2023/09/15 05:16:59;;;;;;;9.15;5.22;;;20.30;91.50;;;;;;5031349;28;20082;-84
2023/09/15 05:19:25;;;;;;;12.93;5.35;;;20.30;91.50;;;;;;5033452;28;20023;-83
2023/09/15 05:21:50;;;;;;;9.88;5.40;;;20.30;91.40;;;;;;5028073;28;20104;-84
2023/09/15 05:24:16;;;;;;;9.68;5.78;;;20.30;91.40;;;;;;5045206;28;20037;-84
2023/09/15 05:26:42;;;;;;;7.03;4.80;;;20.30;91.50;;;;;;5040255;28;20683;-84
2023/09/15 05:29:08;;;;;;;8.35;4.93;;;20.30;91.40;;;;;;5047023;28;20103;-84
2023/09/15 05:31:34;;;;;;;12.20;5.78;;;20.30;91.40;;;;;;5029247;28;20070;-83
2023/09/15 05:34:00;;;;;;;9.65;6.03;;;20.30;91.40;;;;;;5025212;28;20119;-84
2023/09/15 05:36:26;;;;;;;12.18;5.30;;;20.30;91.40;;;;;;5047058;28;20046;-83
2023/09/15 05:38:52;;;;;;;13.00;5.57;;;20.30;91.40;;;;;;5041685;28;20017;-84
2023/09/15 05:41:18;;;;;;;7.47;4.90;;;20.30;91.40;;;;;;5045165;28;20013;-84
2023/09/15 05:43:43;;;;;;;8.43;4.93;;;20.30;91.40;;;;;;5027262;28;20021;-84
2023/09/15 05:46:09;;;;;;;18.75;5.28;;;20.30;91.40;;;;;;5038676;28;20032;-84
2023/09/15 05:48:35;;;;;;;12.85;6.00;;;20.30;91.40;;;;;;5025001;28;20035;-83
2023/09/15 05:51:03;;;;;;;11.50;5.95;;;20.30;91.40;;;;;;5026130;28;20025;-84
2023/09/15 05:53:31;;;;;;;7.10;4.80;;;20.30;91.40;;;;;;5026420;28;20017;-84
2023/09/15 05:55:57;;;;;;;8.43;4.95;;;20.30;91.40;;;;;;5026474;28;20707;-84
2023/09/15 05:58:32;;;;;;;13.80;5.18;;;20.30;91.40;;;;;;5017588;28;20077;-84
2023/09/15 06:01:11;;;;;;;11.27;5.10;;;20.30;91.40;;;;;;5040671;28;20013;-84
2023/09/15 06:03:40;;;;;;;6.93;4.78;;;20.30;91.40;;;;;;5067486;28;20496;-84
2023/09/15 06:06:05;;;;;;;11.13;5.50;;;20.30;91.40;;;;;;5059519;28;20954;-84
2023/09/15 06:08:34;;;;;;;9.10;4.85;;;20.30;91.40;;;;;;5054086;28;20017;-84
2023/09/15 06:11:21;;;;;;;7.35;4.80;;;20.30;91.40;;;;;;5069479;28;20028;-84
2023/09/15 06:13:47;;;;;;;8.95;5.20;;;20.30;91.40;;;;;;5062894;28;20029;-83
2023/09/15 06:16:13;;;;;;;10.50;5.43;;;20.30;91.40;;;;;;5063308;28;20025;-84
2023/09/15 06:18:39;;;;;;;10.65;4.82;;;20.30;91.40;;;;;;5065855;28;20016;-83
2023/09/15 06:21:05;;;;;;;8.80;5.45;;;20.30;91.40;;;;;;5041285;28;20067;-84
2023/09/15 06:23:31;;;;;;;8.82;5.10;;;20.30;91.40;;;;;;5061102;28;20012;-84
2023/09/15 06:25:57;;;;;;;8.45;4.90;;;20.30;91.40;;;;;;5047631;28;20033;-84
2023/09/15 06:28:22;;;;;;;8.05;4.75;;;20.30;91.40;;;;;;5049579;28;20025;-83
2023/09/15 06:30:48;;;;;;;10.30;5.50;;;20.30;91.40;;;;;;5042245;28;20420;-84
2023/09/15 06:33:14;;;;;;;8.90;5.47;;;20.30;91.40;;;;;;5050845;28;20487;-83
2023/09/15 06:35:39;;;;;;;9.50;5.10;;;20.30;91.40;;;;;;5048514;28;20033;-83
2023/09/15 06:38:06;;;;;;;9.85;5.25;;;20.30;91.40;;;;;;5061720;28;20020;-83
2023/09/15 06:40:35;;;;;;;9.75;5.05;;;20.30;91.40;;;;;;5050356;28;20070;-84
2023/09/15 06:43:04;;;;;;;9.43;5.65;;;20.30;91.50;;;;;;5059059;28;20026;-86
2023/09/15 06:45:31;;;;;;;12.18;5.90;;;20.30;91.30;;;;;;5066141;28;20081;-84
2023/09/15 06:47:58;;;;;;;9.43;5.47;;;20.30;90.90;;;;;;5047887;28;20028;-84
2023/09/15 06:50:24;;;;;;;11.85;6.20;;;20.20;90.60;;;;;;5047066;28;20031;-85
2023/09/15 06:52:50;;;;;;;9.93;5.63;;;20.20;90.50;;;;;;5064927;28;20037;-85
2023/09/15 06:55:15;;;;;;;9.52;6.10;;;20.20;90.40;;;;;;5070805;28;20032;-85
2023/09/15 06:57:42;;;;;;;11.05;7.28;;;20.20;90.40;;;;;;5071756;28;20025;-85
2023/09/15 07:00:09;;;;;;;10.65;6.25;;;20.20;90.40;;;;;;5047176;28;20381;-85
2023/09/15 07:02:34;;;;;;;10.73;6.85;;;20.20;90.40;;;;;;5049966;28;20528;-86
2023/09/15 07:05:00;;;;;;;12.50;6.68;;;20.10;90.40;;;;;;5066060;28;20061;-85
2023/09/15 07:07:26;;;;;;;11.30;7.30;;;20.10;90.40;;;;;;5069087;28;20388;-85
2023/09/15 07:09:51;;;;;;;21.85;7.25;;;20.10;90.30;;;;;;5050567;28;20469;-85
2023/09/15 07:12:17;;;;;;;16.55;7.45;;;20.00;90.30;;;;;;5050821;28;20028;-86
2023/09/15 07:14:43;;;;;;;11.20;7.32;;;20.00;90.40;;;;;;5048747;28;20085;-86
2023/09/15 07:17:08;;;;;;;11.57;7.05;;;20.00;90.40;;;;;;5048094;28;20057;-85
2023/09/15 07:19:34;;;;;;;13.25;7.25;;;20.00;90.50;;;;;;5046842;28;20033;-86
2023/09/15 07:22:00;;;;;;;15.48;6.97;;;20.10;90.60;;;;;;5053259;28;20025;-87
2023/09/15 07:24:25;;;;;;;13.73;7.68;;;20.10;90.60;;;;;;5059751;28;20023;-85
2023/09/15 07:26:51;;;;;;;11.50;7.60;;;20.10;90.70;;;;;;5063271;28;20440;-86
2023/09/15 07:29:16;;;;;;;16.50;8.30;;;20.00;90.70;;;;;;5048972;28;20036;-87
2023/09/15 07:31:42;;;;;;;14.48;7.80;;;20.00;90.80;;;;;;5066693;28;20040;-86
2023/09/15 07:34:09;;;;;;;11.60;7.38;;;20.00;90.90;;;;;;5066730;28;20039;-86
2023/09/15 07:36:35;;;;;;;13.88;8.13;;;20.00;90.90;;;;;;5055281;28;20031;-85
2023/09/15 07:39:00;;;;;;;13.20;8.15;;;20.00;91.30;;;;;;5049789;28;20040;-86
2023/09/15 07:41:26;;;;;;;14.52;8.18;;;20.00;91.00;;;;;;5067166;28;20127;-86
2023/09/15 07:43:57;;;;;;;15.70;8.68;;;20.00;91.10;;;;;;5054307;28;20024;-86
2023/09/15 07:46:22;;;;;;;15.70;9.50;;;20.00;91.20;;;;;;5064227;28;20041;-85
2023/09/15 07:48:48;;;;;;;14.05;7.60;;;20.00;91.20;;;;;;5061318;28;20108;-85
2023/09/15 07:51:15;;;;;;;15.48;8.57;;;20.00;91.30;;;;;;5068908;28;20025;-85
2023/09/15 07:53:42;;;;;;;15.93;9.23;;;20.10;91.40;;;;;;5060527;28;20099;-86
2023/09/15 07:56:07;;;;;;;14.13;9.23;;;20.10;91.50;;;;;;5067575;28;20024;-87
2023/09/15 07:58:33;;;;;;;15.30;9.07;;;20.00;91.40;;;;;;5054739;28;20025;-86
2023/09/15 08:01:00;;;;;;;13.90;8.85;;;20.10;91.50;;;;;;5061299;28;20075;-85
2023/09/15 08:03:26;;;;;;;15.10;9.25;;;20.00;91.40;;;;;;5047437;28;20362;-85
2023/09/15 08:05:52;;;;;;;18.60;10.57;;;20.10;91.40;;;;;;5060300;28;20146;-84
2023/09/15 08:08:17;;;;;;;16.10;10.60;;;20.00;91.40;;;;;;5048558;28;20436;-86
2023/09/15 08:10:45;;;;;;;17.30;9.60;;;20.10;91.40;;;;;;5048710;28;20108;-85
2023/09/15 08:13:10;;;;;;;18.25;11.20;;;20.10;91.40;;;;;;5066496;28;20017;-85
2023/09/15 08:15:40;;;;;;;15.73;10.32;;;20.10;91.40;;;;;;5065054;28;20495;-84
2023/09/15 08:18:05;;;;;;;21.87;11.47;;;20.10;91.70;;;;;;5047056;28;20048;-84
2023/09/15 08:20:31;;;;;;;15.48;9.07;;;20.10;91.40;;;;;;5067283;28;20465;-84
2023/09/15 08:22:58;;;;;;;19.48;10.30;;;20.10;91.70;;;;;;5061053;28;20104;-84
2023/09/15 08:25:24;;;;;;;19.67;9.88;;;20.10;91.40;;;;;;5067489;28;20539;-83
2023/09/15 08:27:50;;;;;;;19.25;10.32;;;20.10;91.40;;;;;;5051303;28;20039;-84
2023/09/15 08:30:16;;;;;;;16.35;9.38;;;20.20;91.40;;;;;;5048996;28;20032;-83
2023/09/15 08:32:43;;;;;;;15.68;10.63;;;20.20;91.40;;;;;;5064702;28;20025;-84
2023/09/15 08:35:09;;;;;;;17.77;9.25;;;20.20;91.50;;;;;;5065837;28;20025;-84
2023/09/15 08:37:34;;;;;;;18.58;9.07;;;20.20;91.50;;;;;;5061680;28;20033;-83
2023/09/15 08:40:00;;;;;;;14.15;8.88;;;20.20;91.50;;;;;;5061835;28;20033;-84
2023/09/15 08:42:28;;;;;;;19.13;9.35;;;20.20;91.50;;;;;;5045523;28;20031;-84
2023/09/15 08:44:56;;;;;;;18.52;10.45;;;20.20;91.50;;;;;;5058980;28;20046;-84
2023/09/15 08:47:24;;;;;;;20.48;10.10;;;20.20;91.50;;;;;;5048456;28;20017;-85
2023/09/15 08:49:52;;;;;;;20.55;10.07;;;20.20;91.50;;;;;;5049009;28;20048;-85
2023/09/15 08:52:19;;;;;;;16.02;8.90;;;20.20;91.50;;;;;;5065342;28;20028;-84
2023/09/15 08:54:45;;;;;;;17.27;10.07;;;20.20;91.50;;;;;;5052092;28;20032;-83
2023/09/15 08:57:11;;;;;;;17.27;10.18;;;20.20;91.50;;;;;;5066523;28;20053;-83
2023/09/15 08:59:39;;;;;;;13.75;9.13;;;20.20;91.50;;;;;;5043527;28;20029;-84
2023/09/15 09:02:04;;;;;;;16.20;9.25;;;20.20;91.50;;;;;;5059821;28;20440;-84
2023/09/15 09:04:30;;;;;;;16.15;8.85;;;20.20;91.50;;;;;;5063605;28;20013;-83
2023/09/15 09:06:59;;;;;;;21.50;10.10;;;20.20;91.50;;;;;;5062907;28;20036;-84
2023/09/15 09:09:25;;;;;;;15.63;9.25;;;20.20;91.50;;;;;;5045742;28;20429;-84
2023/09/15 09:11:51;;;;;;;16.90;8.75;;;20.20;91.50;;;;;;5042490;28;20029;-83
2023/09/15 09:14:17;;;;;;;16.15;8.57;;;20.20;91.50;;;;;;5058182;28;20077;-84
2023/09/15 09:16:42;;;;;;;14.48;9.07;;;20.20;91.50;;;;;;5064072;28;20037;-84
2023/09/15 09:19:10;;;;;;;17.30;8.35;;;20.20;91.50;;;;;;5041448;28;20025;-85
2023/09/15 09:21:36;;;;;;;15.13;8.27;;;20.30;91.50;;;;;;5060222;28;20020;-85
2023/09/15 09:24:01;;;;;;;20.52;9.23;;;20.20;91.50;;;;;;5065604;28;20039;-84
2023/09/15 09:26:27;;;;;;;17.65;9.65;;;20.30;91.50;;;;;;5063961;28;20024;-84
2023/09/15 09:28:54;;;;;;;18.92;10.15;;;20.20;91.50;;;;;;5046717;28;20016;-83
2023/09/15 09:31:21;;;;;;;16.63;9.07;;;20.30;91.50;;;;;;5048923;28;20021;-84
2023/09/15 09:33:48;;;;;;;23.48;9.82;;;20.20;91.50;;;;;;5049093;28;20020;-84
2023/09/15 09:36:15;;;;;;;18.38;9.80;;;20.30;91.50;;;;;;5040681;28;20045;-84
2023/09/15 09:38:46;;;;;;;19.45;8.52;;;20.30;91.50;;;;;;5050436;28;20042;-83
2023/09/15 09:41:12;;;;;;;18.60;10.63;;;20.30;91.50;;;;;;5062512;28;20037;-84
2023/09/15 09:43:40;;;;;;;19.45;10.80;;;20.30;91.50;;;;;;5043572;28;20445;-84
2023/09/15 09:46:06;;;;;;;20.23;9.88;;;20.20;91.40;;;;;;5043811;28;20051;-84
2023/09/15 09:48:36;;;;;;;16.40;9.27;;;20.30;91.80;;;;;;5063235;28;20025;-85
2023/09/15 09:51:03;;;;;;;15.93;8.93;;;20.30;91.40;;;;;;5048192;28;20021;-84
2023/09/15 09:53:29;;;;;;;14.75;9.27;;;20.30;91.50;;;;;;5064614;28;20048;-85
2023/09/15 09:55:56;;;;;;;15.90;8.73;;;20.30;91.50;;;;;;5059747;28;20104;-85
2023/09/15 09:58:23;;;;;;;18.40;9.43;;;20.20;91.50;;;;;;5040627;28;20024;-84
2023/09/15 10:00:52;;;;;;;18.15;9.48;;;20.30;91.80;;;;;;5049990;28;20020;-85
2023/09/15 10:03:18;;;;;;;13.77;7.05;;;20.30;91.80;;;;;;5041608;28;20021;-84
2023/09/15 10:05:44;;;;;;;16.85;8.20;;;20.30;91.50;;;;;;5058538;28;20128;-84
2023/09/15 10:08:13;;;;;;;19.30;9.52;;;20.30;91.50;;;;;;5047377;28;20115;-84
2023/09/15 10:10:42;;;;;;;19.40;10.35;;;20.30;91.50;;;;;;5043438;28;20070;-85
2023/09/15 10:13:11;;;;;;;18.55;10.38;;;20.30;91.50;;;;;;5043604;28;20392;-84
2023/09/15 10:15:40;;;;;;;18.77;10.43;;;20.30;91.50;;;;;;5050090;28;20024;-84
2023/09/15 10:18:14;;;;;;;19.57;10.60;;;20.30;91.50;;;;;;5060389;28;20373;-84
2023/09/15 10:20:42;;;;;;;19.75;10.32;;;20.30;91.50;;;;;;5057947;28;20635;-84
2023/09/15 10:23:10;;;;;;;15.63;9.02;;;20.30;91.50;;;;;;5043142;28;20012;-84
2023/09/15 10:25:49;;;;;;;14.52;8.40;;;20.30;91.50;;;;;;5060812;28;20017;-84
2023/09/15 10:28:19;;;;;;;17.07;7.90;;;20.30;91.50;;;;;;5066725;28;20021;-85
2023/09/15 10:30:45;;;;;;;17.08;9.02;;;20.30;91.50;;;;;;5049274;28;20028;-85
2023/09/15 10:33:12;;;;;;;17.13;8.63;;;20.30;91.50;;;;;;5046523;28;20103;-84
2023/09/15 10:35:39;;;;;;;19.20;10.05;;;20.30;91.50;;;;;;5050567;28;20116;-85
2023/09/15 10:38:05;;;;;;;19.15;10.07;;;20.30;91.50;;;;;;5064514;28;20031;-90
2023/09/15 10:40:48;;;;;;;16.85;9.55;;;20.30;91.50;;;;;;5046321;28;20020;-86
2023/09/15 10:43:17;;;;;;;16.33;9.48;;;20.20;91.20;;;;;;5060769;28;20056;-89
2023/09/15 10:46:03;;;;;;;19.50;10.27;;;20.20;91.20;;;;;;5037283;28;20055;-88
2023/09/15 10:48:44;;;;;;;19.83;9.48;;;20.20;91.50;;;;;;5034991;28;20083;-87
2023/09/15 10:51:11;;;;;;;17.00;9.63;;;20.20;91.10;;;;;;5043679;28;20451;-89
2023/09/15 10:53:48;;;;;;;18.48;10.73;;;20.20;91.00;;;;;;5041000;28;20064;-89
2023/09/15 10:56:16;;;;;;;19.27;10.05;;;20.20;91.00;;;;;;5048295;28;20079;-88
2023/09/15 10:58:42;;;;;;;17.08;10.20;;;20.20;91.00;;;;;;5042350;28;20485;-87
2023/09/15 11:01:11;;;;;;;19.00;10.27;;;20.20;91.00;;;;;;5048816;28;20027;-87
2023/09/15 11:03:38;;;;;;;22.75;10.32;;;20.10;91.10;;;;;;5042956;28;20090;-87
2023/09/15 11:06:09;;;;;;;16.55;9.05;;;20.10;91.10;;;;;;5040289;28;20058;-91
2023/09/15 11:08:36;;;;;;;20.77;9.85;;;20.10;91.10;;;;;;5040433;28;20509;-88
2023/09/15 11:11:04;;;;;;;14.48;8.88;;;20.10;91.20;;;;;;5042863;28;20108;-86
2023/09/15 11:13:31;;;;;;;20.75;10.10;;;20.10;91.30;;;;;;5057372;28;20025;-89
2023/09/15 11:15:57;;;;;;;21.95;11.25;;;20.10;91.30;;;;;;5039879;28;20388;-88
2023/09/15 11:18:23;;;;;;;16.27;9.73;;;20.10;91.40;;;;;;5041743;28;20107;-89
2023/09/15 11:20:49;;;;;;;12.52;6.18;;;20.10;91.30;;;;;;5048356;28;20017;-87
2023/09/15 11:23:18;;;;;;;18.77;10.02;;;20.10;91.40;;;;;;5060670;28;20112;-87
2023/09/15 11:25:44;;;;;;;16.42;8.85;;;20.10;91.40;;;;;;5049716;28;20466;-88
2023/09/15 11:28:13;;;;;;;21.80;9.57;;;20.10;91.40;;;;;;5058797;28;20473;-89
2023/09/15 11:30:39;;;;;;;19.77;9.90;;;20.10;91.50;;;;;;5040348;28;20029;-87
2023/09/15 11:33:07;;;;;;;17.83;9.15;;;20.20;91.60;;;;;;5052188;28;20380;-89
2023/09/15 11:35:34;;;;;;;18.77;9.65;;;20.10;91.60;;;;;;5042566;28;20606;-88
2023/09/15 11:38:02;;;;;;;20.58;10.65;;;20.20;91.80;;;;;;5044606;28;20024;-87
2023/09/15 11:40:28;;;;;;;18.35;9.45;;;20.20;91.80;;;;;;5054255;28;20012;-87
2023/09/15 11:42:59;;;;;;;16.00;8.88;;;20.20;91.80;;;;;;5061942;28;20023;-87
2023/09/15 11:45:28;;;;;;;17.33;9.88;;;20.20;91.80;;;;;;5063458;28;20021;-86
2023/09/15 11:47:55;;;;;;;17.52;8.15;;;20.20;91.90;;;;;;5047486;28;20017;-89
2023/09/15 11:50:21;;;;;;;13.70;8.52;;;20.20;91.90;;;;;;5046390;28;20025;-88
2023/09/15 11:52:47;;;;;;;18.77;10.65;;;20.20;92.00;;;;;;5065319;28;20079;-87
2023/09/15 11:55:17;;;;;;;17.77;10.77;;;20.20;92.00;;;;;;5064284;28;20033;-87
2023/09/15 11:57:45;;;;;;;23.15;10.32;;;20.20;91.90;;;;;;5063348;28;20473;-86
2023/09/15 12:00:16;;;;;;;18.40;9.50;;;20.20;91.70;;;;;;5046589;28;20074;-88
2023/09/15 12:02:44;;;;;;;21.27;10.68;;;20.20;91.70;;;;;;5047206;28;20059;-87
2023/09/15 12:05:10;;;;;;;15.98;9.05;;;20.20;91.80;;;;;;5065193;28;20466;-89
2023/09/15 12:07:36;;;;;;;17.23;9.52;;;20.20;91.70;;;;;;5064058;28;20029;-90
2023/09/15 12:10:03;;;;;;;17.58;8.65;;;20.30;91.70;;;;;;5052584;28;20024;-87
2023/09/15 12:12:29;;;;;;;16.83;9.18;;;20.30;91.80;;;;;;5061291;28;20112;-88
2023/09/15 12:15:00;;;;;;;13.98;8.05;;;20.30;91.80;;;;;;5046784;28;20112;-88
2023/09/15 12:17:30;;;;;;;16.73;9.75;;;20.30;92.00;;;;;;5042967;28;20623;-88
2023/09/15 12:19:59;;;;;;;16.98;9.50;;;20.30;92.00;;;;;;5041896;28;20032;-87
2023/09/15 12:22:32;;;;;;;20.35;11.85;;;20.30;92.00;;;;;;5048906;28;20048;-88
2023/09/15 12:24:58;;;;;;;18.75;9.57;;;20.30;92.10;;;;;;5049196;28;20040;-87
2023/09/15 12:27:27;;;;;;;18.55;8.80;;;20.40;92.00;;;;;;5045406;28;20625;-87
2023/09/15 12:29:53;;;;;;;21.50;9.90;;;20.40;92.10;;;;;;5050178;28;20035;-87
2023/09/15 12:32:29;;;;;;;18.83;9.80;;;20.40;92.10;;;;;;5051058;28;20032;-87
2023/09/15 12:34:54;;;;;;;16.40;9.50;;;20.40;92.00;;;;;;5062894;28;20470;-87
2023/09/15 12:37:20;;;;;;;18.83;9.50;;;20.40;92.00;;;;;;5047630;28;20033;-87
2023/09/15 12:39:45;;;;;;;13.77;8.32;;;20.40;92.10;;;;;;5044249;28;20056;-88
2023/09/15 12:42:13;;;;;;;23.63;11.57;;;20.40;92.10;;;;;;5053915;28;20024;-88
2023/09/15 12:44:38;;;;;;;18.75;11.32;;;20.40;92.10;;;;;;5048224;28;20423;-86
2023/09/15 12:47:05;;;;;;;17.58;9.23;;;20.40;92.10;;;;;;5040357;28;20115;-86
2023/09/15 12:49:32;;;;;;;18.45;10.00;;;20.40;92.00;;;;;;5064500;28;20029;-87
2023/09/15 12:51:58;;;;;;;15.85;10.00;;;20.40;92.10;;;;;;5047972;28;20032;-88
2023/09/15 12:54:23;;;;;;;21.77;10.10;;;20.40;92.10;;;;;;5064829;28;20381;-87
2023/09/15 12:56:56;;;;;;;17.67;9.75;;;20.40;92.10;;;;;;5053041;28;20036;-87
2023/09/15 12:59:26;;;;;;;18.05;10.45;;;20.50;92.10;;;;;;5050757;28;20109;-87
2023/09/15 13:01:56;;;;;;;16.33;8.10;;;20.50;92.20;;;;;;5060150;28;20025;-85
2023/09/15 13:04:23;;;;;;;22.07;10.63;;;20.50;92.20;;;;;;5061055;28;20159;-85
2023/09/15 13:06:50;;;;;;;20.95;10.75;;;20.50;92.30;;;;;;5046580;28;20285;-86
2023/09/15 13:09:16;;;;;;;17.88;8.65;;;20.50;92.30;;;;;;5060189;28;20099;-87
2023/09/15 13:11:41;;;;;;;15.07;8.93;;;20.50;92.20;;;;;;5045740;28;20508;-86
2023/09/15 13:14:07;;;;;;;13.88;8.40;;;20.50;92.20;;;;;;5044325;28;20036;-88
2023/09/15 13:16:33;;;;;;;17.83;10.35;;;20.50;92.30;;;;;;5041506;28;20029;-89
2023/09/15 13:18:59;;;;;;;18.88;9.07;;;20.50;92.40;;;;;;5044885;28;20068;-89
2023/09/15 13:21:25;;;;;;;15.10;8.32;;;20.50;92.50;;;;;;5045451;28;20098;-89
2023/09/15 13:23:51;;;;;;;15.82;8.00;;;20.60;92.60;;;;;;5062924;28;20048;-86
2023/09/15 13:26:16;;;;;;;20.75;9.35;;;20.50;92.60;;;;;;5043287;28;20025;-88
2023/09/15 13:28:42;;;;;;;14.32;9.65;;;20.50;92.50;;;;;;5062640;28;20029;-86
2023/09/15 13:31:08;;;;;;;19.65;9.90;;;20.50;92.50;;;;;;5044334;28;20025;-87
2023/09/15 13:33:35;;;;;;;17.25;7.32;;;20.50;92.70;;;;;;5042203;28;20074;-87
2023/09/15 13:36:02;;;;;;;16.13;8.57;;;20.60;93.00;;;;;;5058628;28;20550;-87
2023/09/15 13:38:28;;;;;;;21.02;9.20;;;20.60;92.80;;;;;;5049431;28;20104;-87
2023/09/15 13:40:53;;;;;;;16.83;9.77;;;20.60;92.80;;;;;;5045751;28;20482;-87
2023/09/15 13:43:19;;;;;;;17.75;10.73;;;20.60;92.80;;;;;;5062198;28;21984;-86
2023/09/15 13:45:50;;;;;;;19.55;9.77;;;20.60;92.80;;;;;;5050937;28;20032;-88
2023/09/15 13:48:16;;;;;;;17.52;9.30;;;20.60;92.80;;;;;;5049175;28;20949;-86
2023/09/15 13:50:41;;;;;;;18.35;10.32;;;20.60;92.90;;;;;;5065978;28;20078;-86
2023/09/15 13:53:08;;;;;;;22.65;10.60;;;20.60;92.80;;;;;;5066311;28;20020;-86
2023/09/15 13:55:34;;;;;;;16.33;9.57;;;20.60;92.80;;;;;;5046352;28;20032;-87
2023/09/15 13:57:59;;;;;;;15.98;7.85;;;20.60;93.20;;;;;;5060002;28;20143;-87
2023/09/15 14:00:25;;;;;;;18.08;7.72;;;20.60;92.80;;;;;;5065161;28;20017;-87
2023/09/15 14:02:50;;;;;;;15.70;8.63;;;20.60;92.90;;;;;;5042389;28;20783;-87
2023/09/15 14:05:16;;;;;;;16.40;8.85;;;20.60;92.90;;;;;;5036465;28;20032;-88
2023/09/15 14:07:43;;;;;;;17.05;9.13;;;20.60;93.00;;;;;;5044097;28;20407;-86
2023/09/15 14:10:09;;;;;;;18.42;10.13;;;20.60;92.90;;;;;;5059206;28;20024;-86
2023/09/15 14:12:34;;;;;;;17.38;9.75;;;20.60;93.00;;;;;;5060591;28;20035;-87
2023/09/15 14:15:00;;;;;;;18.67;9.50;;;20.60;93.00;;;;;;5051325;28;20108;-87
2023/09/15 14:17:26;;;;;;;19.00;10.55;;;20.70;93.10;;;;;;5043518;28;20028;-87
2023/09/15 14:19:54;;;;;;;16.15;8.80;;;20.60;93.00;;;;;;5042567;28;20037;-87
2023/09/15 14:22:20;;;;;;;15.73;8.85;;;20.60;93.10;;;;;;5047449;28;20025;-86
2023/09/15 14:24:47;;;;;;;21.13;9.77;;;20.60;93.10;;;;;;5062667;28;20032;-87
2023/09/15 14:27:13;;;;;;;22.00;9.23;;;20.60;93.20;;;;;;5064702;28;20017;-87
2023/09/15 14:29:38;;;;;;;18.83;8.65;;;20.60;93.20;;;;;;5050824;28;20031;-88
2023/09/15 14:32:05;;;;;;;15.45;8.73;;;20.60;93.30;;;;;;5064326;28;20549;-86
2023/09/15 14:34:31;;;;;;;20.17;9.40;;;20.60;93.40;;;;;;5053843;28;20051;-89
2023/09/15 14:37:00;;;;;;;15.88;8.60;;;20.60;93.30;;;;;;5044027;28;20481;-86
2023/09/15 14:39:26;;;;;;;22.98;8.73;;;20.60;93.40;;;;;;5058988;28;20048;-87
2023/09/15 14:41:52;;;;;;;16.02;8.93;;;20.60;93.40;;;;;;5066766;28;20029;-87
2023/09/15 14:44:20;;;;;;;17.52;8.02;;;20.70;93.60;;;;;;5058602;28;20104;-87
2023/09/15 14:46:46;;;;;;;11.20;7.07;;;20.60;93.50;;;;;;5065954;28;20020;-87
2023/09/15 14:49:14;;;;;;;10.30;6.40;;;20.60;93.90;;;;;;5063630;28;20381;-87
2023/09/15 14:51:40;;;;;;;15.05;8.65;;;20.60;93.80;;;;;;5061928;28;20020;-87
2023/09/15 14:54:06;;;;;;;12.65;8.10;;;20.60;93.80;;;;;;5041037;28;20032;-86
2023/09/15 14:56:32;;;;;;;17.80;9.32;;;20.60;93.80;;;;;;5049194;28;20038;-87
2023/09/15 14:58:58;;;;;;;13.20;7.70;;;20.60;93.70;;;;;;5045308;28;20025;-86
2023/09/15 15:01:24;;;;;;;14.77;8.30;;;20.60;93.70;;;;;;5045654;28;20027;-87
2023/09/15 15:03:50;;;;;;;23.38;8.77;;;20.60;93.80;;;;;;5057170;28;20032;-87
2023/09/15 15:06:17;;;;;;;15.13;8.90;;;20.60;93.70;;;;;;5060522;28;20429;-87
2023/09/15 15:08:43;;;;;;;14.77;8.98;;;20.60;93.90;;;;;;5063402;28;20040;-86
2023/09/15 15:11:11;;;;;;;16.60;10.15;;;20.60;93.90;;;;;;5053597;28;20033;-87
2023/09/15 15:13:37;;;;;;;15.80;8.95;;;20.60;93.90;;;;;;5054860;28;20515;-87
2023/09/15 15:16:04;;;;;;;19.52;10.30;;;20.60;93.90;;;;;;5057461;28;20033;-87
2023/09/15 15:18:30;;;;;;;19.67;9.73;;;20.60;93.90;;;;;;5050551;28;20044;-86
2023/09/15 15:20:57;;;;;;;18.55;9.32;;;20.60;94.00;;;;;;5064433;28;20508;-86
2023/09/15 15:23:23;;;;;;;19.60;10.95;;;20.60;94.00;;;;;;5052261;28;20024;-86
2023/09/15 15:25:49;;;;;;;18.70;9.68;;;20.50;93.80;;;;;;5070967;28;20567;-87
2023/09/15 15:28:15;;;;;;;20.17;10.27;;;20.50;93.90;;;;;;5056398;28;20025;-84
2023/09/15 15:30:42;;;;;;;19.52;10.55;;;20.50;93.80;;;;;;5048819;28;20573;-87
2023/09/15 15:33:07;;;;;;;21.02;10.68;;;20.50;93.80;;;;;;5069747;28;20037;-86